createdAt,value
2023-05-01T00:03:13.769Z,73.92
2023-05-01T00:08:15.285Z,74.51
2023-05-01T00:13:21.135Z,75.21
2023-05-01T00:18:22.274Z,75.58
2023-05-01T00:23:23.562Z,75.65
2023-05-01T00:28:24.904Z,75.72
2023-05-01T00:33:25.866Z,75.32
2023-05-01T00:38:26.934Z,75.29
2023-05-01T00:43:28.038Z,75.95
2023-05-01T00:48:30.072Z,76.17
2023-05-01T00:53:33.181Z,76.15
2023-05-01T00:58:34.354Z,76.33
2023-05-01T01:03:35.360Z,77.69
2023-05-01T01:08:45.411Z,78.64
2023-05-01T01:13:59.644Z,79.12
2023-05-01T01:19:20.055Z,79.78
2023-05-01T01:24:37.621Z,80.53
2023-05-01T01:29:50.671Z,80.77
2023-05-01T01:34:55.753Z,80.66
2023-05-01T01:40:06.336Z,80.18
2023-05-01T01:45:37.026Z,79.77
2023-05-01T01:50:40.587Z,79.81
2023-05-01T01:55:44.554Z,79.31
2023-05-01T02:00:45.723Z,79.40
2023-05-01T02:05:48.988Z,79.74
2023-05-01T02:10:51.338Z,79.99
2023-05-01T02:15:54.293Z,79.85
2023-05-01T02:20:58.182Z,79.87
2023-05-01T02:26:03.449Z,79.78
2023-05-01T02:31:04.624Z,79.78
2023-05-01T02:36:06.181Z,79.59
2023-05-01T02:41:09.876Z,79.11
2023-05-01T02:46:13.542Z,78.90
2023-05-01T02:51:16.107Z,78.95
2023-05-01T02:56:17.494Z,79.45
2023-05-01T03:01:20.066Z,79.31
2023-05-01T03:06:21.318Z,79.59
2023-05-01T03:11:23.525Z,79.97
2023-05-01T03:16:24.526Z,79.78
2023-05-01T03:21:26.067Z,79.83
2023-05-01T03:26:27.845Z,79.88
2023-05-01T03:31:29.073Z,79.54
2023-05-01T03:36:33.117Z,79.14
2023-05-01T03:41:34.191Z,78.76
2023-05-01T03:46:48.264Z,78.23
2023-05-01T03:51:56.454Z,77.81
2023-05-01T03:56:57.967Z,77.62
2023-05-01T04:01:59.134Z,77.43
2023-05-01T04:07:02.246Z,77.46
2023-05-01T04:12:03.518Z,77.40
2023-05-01T04:17:04.676Z,76.90
2023-05-01T04:22:07.845Z,76.65
2023-05-01T04:27:09.325Z,76.32
2023-05-01T04:32:10.417Z,76.20
2023-05-01T04:37:13.735Z,75.92
2023-05-01T04:42:16.957Z,75.50
2023-05-01T04:47:18.364Z,75.01
2023-05-01T04:52:19.466Z,74.33
2023-05-01T04:57:30.442Z,73.54
2023-05-01T05:02:31.950Z,72.25
2023-05-01T05:07:33.394Z,71.42
2023-05-01T05:13:00.354Z,71.33
2023-05-01T05:18:01.706Z,70.27
2023-05-01T05:23:04.121Z,69.86
2023-05-01T05:28:05.198Z,68.30
2023-05-01T05:33:08.077Z,67.01
2023-05-01T05:38:09.796Z,66.91
2023-05-01T05:43:12.309Z,66.09
2023-05-01T05:48:13.923Z,65.20
2023-05-01T05:53:15.682Z,63.63
2023-05-01T05:58:19.531Z,62.68
2023-05-01T06:03:21.853Z,60.89
2023-05-01T06:08:24.286Z,60.00
2023-05-01T06:13:26.146Z,59.46
2023-05-01T06:18:27.384Z,58.69
2023-05-01T06:23:28.672Z,58.09
2023-05-01T06:28:47.996Z,53.48
2023-05-01T06:33:49.312Z,51.52
2023-05-01T06:38:56.689Z,49.43
2023-05-01T06:43:57.889Z,48.67
2023-05-01T06:48:58.880Z,46.95
2023-05-01T06:54:00.002Z,45.18
2023-05-01T06:59:01.050Z,45.28
2023-05-01T07:04:03.420Z,43.97
2023-05-01T07:09:04.679Z,42.76
2023-05-01T07:14:05.829Z,41.72
2023-05-01T07:19:06.992Z,42.21
2023-05-01T07:24:07.991Z,41.66
2023-05-01T07:29:08.978Z,40.39
2023-05-01T07:34:10.785Z,39.35
2023-05-01T07:39:13.151Z,38.68
2023-05-01T07:44:14.384Z,37.69
2023-05-01T07:49:15.440Z,38.34
2023-05-01T07:54:21.302Z,37.97
2023-05-01T07:59:22.380Z,38.99
2023-05-01T08:04:23.602Z,37.88
2023-05-01T08:09:24.679Z,36.63
2023-05-01T08:14:25.696Z,37.35
2023-05-01T08:19:27.305Z,38.01
2023-05-01T08:24:29.395Z,37.80
2023-05-01T08:29:30.471Z,35.75
2023-05-01T08:34:31.431Z,37.25
2023-05-01T08:39:32.673Z,37.12
2023-05-01T08:44:37.872Z,36.21
2023-05-01T08:49:41.237Z,36.78
2023-05-01T08:54:43.930Z,35.54
2023-05-01T08:59:45.512Z,35.83
2023-05-01T09:04:48.216Z,34.35
2023-05-01T09:09:49.238Z,34.63
2023-05-01T09:14:52.514Z,33.58
2023-05-01T09:19:53.839Z,34.30
2023-05-01T09:24:55.623Z,33.99
2023-05-01T09:29:56.702Z,32.52
2023-05-01T09:35:12.956Z,31.23
2023-05-01T09:40:14.514Z,32.16
2023-05-01T09:45:16.957Z,31.44
2023-05-01T09:50:29.488Z,31.75
2023-05-01T09:55:30.896Z,30.58
2023-05-01T10:00:46.475Z,31.23
2023-05-01T10:05:47.817Z,32.14
2023-05-01T10:11:04.646Z,31.64
2023-05-01T10:16:06.827Z,30.33
2023-05-01T10:21:09.849Z,31.50
2023-05-01T10:26:12.922Z,30.31
2023-05-01T10:31:15.727Z,30.39
2023-05-01T10:36:21.909Z,32.00
2023-05-01T10:41:57.587Z,29.80
2023-05-01T10:46:58.945Z,29.50
2023-05-01T10:52:03.010Z,31.53
2023-05-01T10:57:05.800Z,30.33
2023-05-01T11:02:21.720Z,30.52
2023-05-01T11:07:23.918Z,31.04
2023-05-01T11:12:51.044Z,31.02
2023-05-01T11:17:52.207Z,32.97
2023-05-01T11:22:56.507Z,31.18
2023-05-01T11:28:00.313Z,30.90
2023-05-01T11:33:03.505Z,30.11
2023-05-01T11:38:04.792Z,30.14
2023-05-01T11:43:07.889Z,31.23
2023-05-01T11:48:17.911Z,31.51
2023-05-01T11:53:20.365Z,32.73
2023-05-01T11:58:35.579Z,32.41
2023-05-01T12:03:41.990Z,31.90
2023-05-01T12:08:47.124Z,33.61
2023-05-01T12:13:49.748Z,34.43
2023-05-01T12:18:53.317Z,34.53
2023-05-01T12:23:55.096Z,34.74
2023-05-01T12:28:58.505Z,35.32
2023-05-01T12:34:01.945Z,34.06
2023-05-01T12:39:08.776Z,34.05
2023-05-01T12:44:17.991Z,33.46
2023-05-01T12:49:20.057Z,33.31
2023-05-01T12:54:38.848Z,34.18
2023-05-01T12:59:42.207Z,33.26
2023-05-01T13:04:44.672Z,32.70
2023-05-01T13:09:54.105Z,32.85
2023-05-01T13:14:56.078Z,33.00
2023-05-01T13:20:04.510Z,32.41
2023-05-01T13:25:16.714Z,32.55
2023-05-01T13:30:21.389Z,32.56
2023-05-01T13:35:24.238Z,32.67
2023-05-01T13:40:27.067Z,32.68
2023-05-01T13:45:28.172Z,33.42
2023-05-01T13:50:29.376Z,33.38
2023-05-01T13:55:32.010Z,32.52
2023-05-01T14:00:33.483Z,32.15
2023-05-01T14:05:36.339Z,32.63
2023-05-01T14:10:37.854Z,32.22
2023-05-01T14:15:43.300Z,31.49
2023-05-01T14:20:46.687Z,31.70
2023-05-01T14:25:48.471Z,31.03
2023-05-01T14:30:50.580Z,30.84
2023-05-01T14:35:52.931Z,30.17
2023-05-01T14:40:53.972Z,30.44
2023-05-01T14:45:55.122Z,30.09
2023-05-01T14:50:58.719Z,30.02
2023-05-01T14:55:59.776Z,30.09
2023-05-01T15:01:01.983Z,30.00
2023-05-01T15:06:03.458Z,30.57
2023-05-01T15:11:05.067Z,29.84
2023-05-01T15:16:16.129Z,29.78
2023-05-01T15:21:17.801Z,27.86
2023-05-01T15:26:19.102Z,28.04
2023-05-01T15:31:20.379Z,27.39
2023-05-01T15:36:21.487Z,28.34
2023-05-01T15:41:22.490Z,28.20
2023-05-01T15:46:26.112Z,28.00
2023-05-01T15:51:27.229Z,28.77
2023-05-01T15:56:28.555Z,29.38
2023-05-01T16:01:34.329Z,28.54
2023-05-01T16:06:36.209Z,28.33
2023-05-01T16:11:37.623Z,28.56
2023-05-01T16:16:41.773Z,27.98
2023-05-01T16:21:42.990Z,28.18
2023-05-01T16:26:44.358Z,27.59
2023-05-01T16:31:47.296Z,28.01
2023-05-01T16:36:48.878Z,27.99
2023-05-01T16:41:52.595Z,27.77
2023-05-01T16:46:55.656Z,27.80
2023-05-01T16:51:57.853Z,27.46
2023-05-01T16:56:58.939Z,28.11
2023-05-01T17:02:00.266Z,28.16
2023-05-01T17:07:01.448Z,28.21
2023-05-01T17:12:02.995Z,28.65
2023-05-01T17:17:07.193Z,29.27
2023-05-01T17:22:10.900Z,30.12
2023-05-01T17:27:13.085Z,30.51
2023-05-01T17:32:18.170Z,30.33
2023-05-01T17:37:31.573Z,30.85
2023-05-01T17:42:32.999Z,31.05
2023-05-01T17:47:34.485Z,31.48
2023-05-01T17:52:35.784Z,31.92
2023-05-01T17:57:41.233Z,32.73
2023-05-01T18:02:43.999Z,33.60
2023-05-01T18:07:45.515Z,34.20
2023-05-01T18:12:50.015Z,35.15
2023-05-01T18:17:51.539Z,36.08
2023-05-01T18:22:53.714Z,36.78
2023-05-01T18:27:55.727Z,37.79
2023-05-01T18:32:57.277Z,38.39
2023-05-01T18:37:58.496Z,38.86
2023-05-01T18:42:59.698Z,39.35
2023-05-01T18:48:00.880Z,39.97
2023-05-01T18:53:02.237Z,40.41
2023-05-01T18:58:03.223Z,41.35
2023-05-01T19:03:04.271Z,42.14
2023-05-01T19:08:06.832Z,42.36
2023-05-01T19:13:07.976Z,43.02
2023-05-01T19:18:09.948Z,43.98
2023-05-01T19:23:11.450Z,44.22
2023-05-01T19:28:12.824Z,44.51
2023-05-01T19:33:13.954Z,44.33
2023-05-01T19:38:15.411Z,45.40
2023-05-01T19:43:16.561Z,45.92
2023-05-01T19:48:17.983Z,46.12
2023-05-01T19:53:20.386Z,46.93
2023-05-01T19:58:26.048Z,47.21
2023-05-01T20:03:27.661Z,48.01
2023-05-01T20:08:29.096Z,48.68
2023-05-01T20:13:30.312Z,49.62
2023-05-01T20:18:31.329Z,50.59
2023-05-01T20:23:33.919Z,50.61
2023-05-01T20:28:34.935Z,50.70
2023-05-01T20:33:36.167Z,51.83
2023-05-01T20:38:46.829Z,51.92
2023-05-01T20:43:47.904Z,52.24
2023-05-01T20:48:48.889Z,52.90
2023-05-01T20:53:49.849Z,53.75
2023-05-01T20:58:50.861Z,53.94
2023-05-01T21:03:52.066Z,55.00
2023-05-01T21:08:55.124Z,55.95
2023-05-01T21:14:02.335Z,56.43
2023-05-01T21:19:03.405Z,56.66
2023-05-01T21:24:06.898Z,57.35
2023-05-01T21:29:09.068Z,57.68
2023-05-01T21:34:10.078Z,57.80
2023-05-01T21:39:15.021Z,58.45
2023-05-01T21:44:17.066Z,58.66
2023-05-01T21:49:22.315Z,59.17
2023-05-01T21:54:23.637Z,59.79
2023-05-01T21:59:30.267Z,60.28
2023-05-01T22:04:31.334Z,60.69
2023-05-01T22:09:32.733Z,61.31
2023-05-01T22:19:41.443Z,61.51
2023-05-01T22:24:42.579Z,60.83
2023-05-01T22:29:43.933Z,61.09
2023-05-01T22:34:44.997Z,60.95
2023-05-01T22:39:46.141Z,61.40
2023-05-01T22:44:47.609Z,60.53
2023-05-01T22:49:49.027Z,60.51
2023-05-01T22:54:52.168Z,61.25
2023-05-01T22:59:53.605Z,61.27
2023-05-01T23:04:54.753Z,61.19
2023-05-01T23:09:56.595Z,60.67
2023-05-01T23:15:00.536Z,61.12
2023-05-01T23:20:02.110Z,61.50
2023-05-01T23:25:05.364Z,62.16
2023-05-01T23:30:07.688Z,62.62
2023-05-01T23:35:23.136Z,62.94
2023-05-01T23:40:25.598Z,63.41
2023-05-01T23:45:29.360Z,63.42
2023-05-01T23:50:32.667Z,63.45
